Time;durP1;ratioP1;P1;durP2;ratioP2;P2;SDS_P1;SDS_P2;PMS_P1;PMS_P2;Temp;Humidity;BMP_temperature;BMP_pressure;BME280_temperature;BME280_humidity;BME280_pressure;Samples;Min_cycle;Max_cycle;Signal;HPM_P1;HPM_P2
2022/07/20 00:00:07;;;;;;;9.00;4.72;;;18.80;76.00;;;;;;5050739;28;20598;-59
2022/07/20 00:02:32;;;;;;;5.53;4.55;;;18.70;75.50;;;;;;5050851;28;20021;-60
2022/07/20 00:04:58;;;;;;;15.93;5.10;;;18.70;76.10;;;;;;5048784;28;20033;-61
2022/07/20 00:07:24;;;;;;;7.43;4.70;;;18.60;76.30;;;;;;5050136;28;20029;-60
2022/07/20 00:12:33;;;;;;;5.93;4.78;;;18.50;77.60;;;;;;5050415;28;20092;-59
2022/07/20 00:14:59;;;;;;;5.15;4.60;;;18.40;78.30;;;;;;5048644;28;20500;-59
2022/07/20 00:17:25;;;;;;;8.43;4.68;;;18.30;78.90;;;;;;5050067;28;20492;-59
2022/07/20 00:19:50;;;;;;;27.58;7.00;;;18.30;79.80;;;;;;5049735;28;20040;-62
2022/07/20 00:22:16;;;;;;;5.90;5.25;;;18.20;80.20;;;;;;5049468;28;20033;-60
2022/07/20 00:24:42;;;;;;;10.02;5.47;;;18.20;80.60;;;;;;5050597;28;20032;-59
2022/07/20 00:27:08;;;;;;;9.65;5.25;;;18.10;80.50;;;;;;5049051;28;20112;-59
2022/07/20 00:29:34;;;;;;;8.27;5.63;;;18.10;81.30;;;;;;5050283;28;20113;-59
2022/07/20 00:32:00;;;;;;;6.60;5.30;;;18.00;82.00;;;;;;5049120;28;20025;-59
2022/07/20 00:34:25;;;;;;;13.88;5.72;;;18.00;83.50;;;;;;5049968;28;21015;-59
2022/07/20 00:36:51;;;;;;;12.80;5.60;;;17.90;84.40;;;;;;5047387;28;20572;-57
2022/07/20 00:39:16;;;;;;;6.75;5.10;;;17.80;84.30;;;;;;5050581;28;20025;-58
2022/07/20 00:41:42;;;;;;;13.98;5.65;;;17.70;85.30;;;;;;5049385;28;20496;-59
2022/07/20 00:44:10;;;;;;;16.98;5.47;;;17.70;87.00;;;;;;5048256;28;20036;-59
2022/07/20 00:46:39;;;;;;;13.82;6.10;;;17.60;87.10;;;;;;5048816;28;20600;-58
2022/07/20 00:49:06;;;;;;;8.20;5.35;;;17.60;87.90;;;;;;5048125;28;20060;-59
2022/07/20 00:51:33;;;;;;;19.73;5.70;;;17.50;87.70;;;;;;5050254;28;20025;-58
2022/07/20 00:53:59;;;;;;;12.90;6.60;;;17.50;88.20;;;;;;5048484;28;20025;-58
2022/07/20 00:56:25;;;;;;;8.40;6.15;;;17.50;87.90;;;;;;5049005;28;20646;-60
2022/07/20 00:58:51;;;;;;;10.80;6.13;;;17.50;88.00;;;;;;5049413;28;20168;-58
2022/07/20 01:01:17;;;;;;;14.32;6.15;;;17.40;89.20;;;;;;5048726;28;20120;-60
2022/07/20 01:03:44;;;;;;;12.95;6.22;;;17.50;89.40;;;;;;5049852;28;20036;-59
2022/07/20 01:06:10;;;;;;;7.15;5.43;;;17.50;89.40;;;;;;5046738;28;20033;-59
2022/07/20 01:08:36;;;;;;;7.43;5.18;;;17.40;89.20;;;;;;5048451;28;20394;-58
2022/07/20 01:11:03;;;;;;;18.02;6.03;;;17.40;88.30;;;;;;5047263;28;20033;-57
2022/07/20 01:13:28;;;;;;;13.80;6.03;;;17.40;89.10;;;;;;5048244;28;20480;-59
2022/07/20 01:15:54;;;;;;;14.25;5.30;;;17.30;89.00;;;;;;5048600;28;20025;-59
2022/07/20 01:18:20;;;;;;;7.68;5.53;;;17.30;88.30;;;;;;5048157;28;20025;-58
2022/07/20 01:20:47;;;;;;;14.38;5.78;;;17.20;88.90;;;;;;5046994;28;20028;-59
2022/07/20 01:23:14;;;;;;;11.25;5.82;;;17.20;90.30;;;;;;5047878;28;20045;-58
2022/07/20 01:25:40;;;;;;;10.82;5.88;;;17.10;90.70;;;;;;5048147;28;20033;-59
2022/07/20 01:28:10;;;;;;;14.25;6.13;;;17.00;91.40;;;;;;5048517;28;20029;-58
2022/07/20 01:30:37;;;;;;;7.07;5.53;;;17.00;91.60;;;;;;5047871;28;20041;-59
2022/07/20 01:33:03;;;;;;;17.17;6.32;;;16.90;92.10;;;;;;5048328;28;20508;-58
2022/07/20 01:35:29;;;;;;;17.73;6.57;;;16.90;92.50;;;;;;5047277;28;20534;-58
2022/07/20 01:37:54;;;;;;;18.50;6.22;;;16.80;93.20;;;;;;5047987;28;20029;-57
2022/07/20 01:40:20;;;;;;;8.77;5.90;;;16.70;93.30;;;;;;5047877;28;20036;-59
2022/07/20 01:42:46;;;;;;;9.98;6.75;;;16.70;92.80;;;;;;5049055;28;20039;-59
2022/07/20 01:45:11;;;;;;;12.15;6.25;;;16.60;92.90;;;;;;5048334;28;20021;-58
2022/07/20 01:47:37;;;;;;;13.25;6.32;;;16.50;93.20;;;;;;5048209;28;20033;-58
2022/07/20 01:50:03;;;;;;;23.02;6.43;;;16.50;93.70;;;;;;5048104;28;20032;-58
2022/07/20 01:52:29;;;;;;;14.40;6.50;;;16.40;94.10;;;;;;5048278;28;20072;-57
2022/07/20 01:54:54;;;;;;;14.57;5.95;;;16.30;95.10;;;;;;5047473;28;20052;-59
2022/07/20 01:57:20;;;;;;;14.45;7.70;;;16.30;96.00;;;;;;5048784;28;20108;-58
2022/07/20 01:59:46;;;;;;;15.20;5.95;;;16.20;96.90;;;;;;5048026;28;20028;-57
2022/07/20 02:02:11;;;;;;;18.48;7.00;;;16.20;97.50;;;;;;5048080;28;20033;-57
2022/07/20 02:04:37;;;;;;;16.27;6.88;;;16.20;98.00;;;;;;5047818;28;20423;-57
2022/07/20 02:07:03;;;;;;;12.70;6.13;;;16.10;98.40;;;;;;5047040;28;20592;-57
2022/07/20 02:09:28;;;;;;;14.15;6.28;;;16.10;98.20;;;;;;5046811;28;20476;-57
2022/07/20 02:11:54;;;;;;;8.52;6.82;;;16.10;98.60;;;;;;5047699;28;20032;-58
2022/07/20 02:14:20;;;;;;;17.63;6.40;;;16.00;98.50;;;;;;5047426;28;20049;-58
2022/07/20 02:16:45;;;;;;;12.88;6.68;;;16.00;98.50;;;;;;5047318;28;20439;-58
2022/07/20 02:19:11;;;;;;;11.48;6.50;;;16.00;98.10;;;;;;5048371;28;20496;-58
2022/07/20 02:21:37;;;;;;;27.42;7.35;;;16.00;98.90;;;;;;5047910;28;20283;-58
2022/07/20 02:24:03;;;;;;;13.55;5.88;;;16.00;99.90;;;;;;5048123;28;20512;-59
2022/07/20 02:26:29;;;;;;;13.50;6.20;;;15.90;99.90;;;;;;5047775;28;20393;-59
2022/07/20 02:28:55;;;;;;;7.68;6.57;;;15.90;99.90;;;;;;5047595;28;20029;-59
2022/07/20 02:31:23;;;;;;;6.93;5.22;;;15.80;99.90;;;;;;5047766;28;20048;-59
2022/07/20 02:33:49;;;;;;;6.72;5.57;;;15.80;99.90;;;;;;5062944;28;20384;-58
2022/07/20 02:36:15;;;;;;;6.82;5.50;;;15.80;99.90;;;;;;5046438;28;20017;-58
2022/07/20 02:38:41;;;;;;;14.10;6.47;;;15.70;99.90;;;;;;5046888;28;20040;-57
2022/07/20 02:41:07;;;;;;;8.07;6.22;;;15.60;99.90;;;;;;5047752;28;20164;-59
2022/07/20 02:43:33;;;;;;;24.55;7.28;;;15.50;99.90;;;;;;5046736;28;20116;-59
2022/07/20 02:45:59;;;;;;;9.35;6.97;;;15.50;99.90;;;;;;5049305;28;20108;-58
2022/07/20 02:48:24;;;;;;;10.43;6.28;;;15.40;99.90;;;;;;5052395;28;20499;-58
2022/07/20 02:50:50;;;;;;;9.10;6.35;;;15.30;99.90;;;;;;5050821;28;20056;-59
2022/07/20 02:53:16;;;;;;;14.70;7.13;;;15.30;99.90;;;;;;5050131;28;20037;-59
2022/07/20 02:55:43;;;;;;;13.70;6.55;;;15.30;99.90;;;;;;5050796;28;20044;-59
2022/07/20 02:58:11;;;;;;;11.93;6.50;;;15.20;99.90;;;;;;5051302;28;20039;-59
2022/07/20 03:00:38;;;;;;;14.73;6.45;;;15.20;99.90;;;;;;5051030;28;20669;-59
2022/07/20 03:03:04;;;;;;;9.85;6.07;;;15.20;99.90;;;;;;5051792;28;20072;-58
2022/07/20 03:05:30;;;;;;;6.70;5.65;;;15.20;99.90;;;;;;5050858;28;20076;-58
2022/07/20 03:07:56;;;;;;;7.85;6.35;;;15.10;99.90;;;;;;5031751;28;20404;-58
2022/07/20 03:10:22;;;;;;;8.48;6.85;;;15.10;99.90;;;;;;5050954;28;20037;-58
2022/07/20 03:12:48;;;;;;;7.32;6.63;;;15.10;99.90;;;;;;5050408;28;20029;-59
2022/07/20 03:15:14;;;;;;;8.45;6.75;;;15.10;99.90;;;;;;5033436;28;20167;-57
2022/07/20 03:17:49;;;;;;;10.32;6.45;;;15.00;99.90;;;;;;5050268;28;20037;-58
2022/07/20 03:20:19;;;;;;;9.55;6.88;;;15.00;99.90;;;;;;5050749;28;20025;-58
2022/07/20 03:22:45;;;;;;;8.80;7.55;;;15.00;99.90;;;;;;5050852;28;20056;-59
2022/07/20 03:25:10;;;;;;;15.40;6.28;;;15.00;99.90;;;;;;5050652;28;20091;-58
2022/07/20 03:27:37;;;;;;;10.35;6.85;;;15.00;99.90;;;;;;5049851;28;20028;-58
2022/07/20 03:30:07;;;;;;;12.95;7.20;;;15.00;99.90;;;;;;5049333;28;20510;-60
2022/07/20 03:32:33;;;;;;;7.60;6.78;;;14.90;99.90;;;;;;5050372;28;20031;-59
2022/07/20 03:34:59;;;;;;;9.07;6.65;;;14.90;99.90;;;;;;5050234;28;20056;-58
2022/07/20 03:37:25;;;;;;;7.88;6.75;;;14.90;99.90;;;;;;5050240;28;20033;-59
2022/07/20 03:39:51;;;;;;;10.13;7.13;;;14.80;99.90;;;;;;5049674;28;20037;-58
2022/07/20 03:42:17;;;;;;;11.55;6.22;;;14.80;99.90;;;;;;5051104;28;20024;-59
2022/07/20 03:44:43;;;;;;;7.78;6.07;;;14.80;99.90;;;;;;5049682;28;20033;-59
2022/07/20 03:47:08;;;;;;;8.20;6.70;;;14.80;99.90;;;;;;5049791;28;20032;-58
2022/07/20 03:49:35;;;;;;;9.98;6.38;;;14.70;99.90;;;;;;5050113;28;20045;-59
2022/07/20 03:52:03;;;;;;;7.97;6.80;;;14.70;99.90;;;;;;5050169;28;20412;-57
2022/07/20 03:54:29;;;;;;;9.57;5.53;;;14.70;99.90;;;;;;5051048;28;20083;-59
2022/07/20 03:56:55;;;;;;;7.82;6.18;;;14.70;99.90;;;;;;5047906;28;20041;-59
2022/07/20 03:59:21;;;;;;;7.97;6.50;;;14.70;99.90;;;;;;5050002;28;20057;-58
2022/07/20 04:01:46;;;;;;;10.10;5.97;;;14.70;99.90;;;;;;5048894;28;20059;-57
2022/07/20 04:04:12;;;;;;;21.50;6.20;;;14.70;99.90;;;;;;5050768;28;20025;-57
2022/07/20 04:06:38;;;;;;;11.13;7.10;;;14.70;99.90;;;;;;5049668;28;20037;-59
2022/07/20 04:09:03;;;;;;;14.20;7.85;;;14.70;99.90;;;;;;5050486;28;20037;-59
2022/07/20 04:11:29;;;;;;;8.98;7.35;;;14.70;99.90;;;;;;5049148;28;20489;-59
2022/07/20 04:13:55;;;;;;;8.57;7.78;;;14.70;99.90;;;;;;5049767;28;20384;-58
2022/07/20 04:16:21;;;;;;;11.77;8.05;;;14.80;99.90;;;;;;5049664;28;20083;-57
2022/07/20 04:18:47;;;;;;;8.10;7.30;;;14.80;99.90;;;;;;5049191;28;20424;-57
2022/07/20 04:21:12;;;;;;;7.90;7.20;;;14.90;99.90;;;;;;5050596;28;20028;-59
2022/07/20 04:23:38;;;;;;;12.05;7.28;;;15.00;99.90;;;;;;5049417;28;20275;-60
2022/07/20 04:26:04;;;;;;;8.55;7.63;;;15.10;99.90;;;;;;5049999;28;20718;-58
2022/07/20 04:28:30;;;;;;;8.23;6.78;;;15.20;99.90;;;;;;5049306;28;20492;-58
2022/07/20 04:30:55;;;;;;;7.88;7.18;;;15.30;99.90;;;;;;5049631;28;20472;-57
2022/07/20 04:33:21;;;;;;;11.88;6.65;;;15.40;99.90;;;;;;5050102;28;20025;-58
2022/07/20 04:35:47;;;;;;;10.68;6.97;;;15.60;99.90;;;;;;5049883;28;20025;-57
2022/07/20 04:38:17;;;;;;;8.60;6.53;;;15.70;99.90;;;;;;5049672;28;20101;-59
2022/07/20 04:40:44;;;;;;;7.57;6.70;;;15.90;99.90;;;;;;5049043;28;20035;-58
2022/07/20 04:43:10;;;;;;;7.97;7.18;;;16.00;99.90;;;;;;5049465;28;20104;-58
2022/07/20 04:45:36;;;;;;;7.90;7.30;;;16.20;99.90;;;;;;5049098;28;20542;-58
2022/07/20 04:48:02;;;;;;;11.98;7.82;;;16.30;99.90;;;;;;5049833;28;20025;-57
2022/07/20 04:50:27;;;;;;;8.77;7.15;;;16.40;99.90;;;;;;5048886;28;20048;-57
2022/07/20 04:52:53;;;;;;;7.00;6.22;;;16.50;99.90;;;;;;5050054;28;20035;-59
2022/07/20 04:55:19;;;;;;;7.10;6.45;;;16.50;99.90;;;;;;5049666;28;20035;-59
2022/07/20 04:57:44;;;;;;;8.45;6.07;;;16.60;99.90;;;;;;5048078;28;20407;-59
2022/07/20 05:00:11;;;;;;;10.88;6.45;;;16.70;99.90;;;;;;5049688;28;20029;-59
2022/07/20 05:02:37;;;;;;;12.80;6.65;;;16.70;99.90;;;;;;5047481;28;20029;-58
2022/07/20 05:05:03;;;;;;;22.48;7.63;;;16.70;99.90;;;;;;5049027;28;20053;-59
2022/07/20 05:07:29;;;;;;;12.55;6.90;;;16.70;99.90;;;;;;5047428;28;20443;-59
2022/07/20 05:09:55;;;;;;;7.68;6.97;;;16.80;99.90;;;;;;5048412;28;20552;-59
2022/07/20 05:12:20;;;;;;;8.00;7.20;;;17.00;99.90;;;;;;5046966;28;20025;-59
2022/07/20 05:14:46;;;;;;;8.32;7.68;;;17.20;99.90;;;;;;5047098;28;20037;-58
2022/07/20 05:17:11;;;;;;;10.35;7.65;;;17.60;99.90;;;;;;5048711;28;20068;-59
2022/07/20 05:19:37;;;;;;;9.73;7.07;;;18.30;99.90;;;;;;5047972;28;20045;-60
2022/07/20 05:22:03;;;;;;;8.95;6.93;;;19.10;99.90;;;;;;5048727;28;20120;-59
2022/07/20 05:24:28;;;;;;;7.90;6.70;;;20.20;99.10;;;;;;5048135;28;20096;-60
2022/07/20 05:26:54;;;;;;;11.23;7.07;;;21.00;94.80;;;;;;5047952;28;20087;-60
2022/07/20 05:29:20;;;;;;;7.18;6.47;;;21.50;90.80;;;;;;5046597;28;20033;-58
2022/07/20 05:31:46;;;;;;;7.90;7.20;;;22.10;90.30;;;;;;5048991;28;20416;-57
2022/07/20 05:34:12;;;;;;;9.82;7.75;;;22.90;85.00;;;;;;5048365;28;20033;-57
2022/07/20 05:36:37;;;;;;;7.93;5.72;;;23.20;78.30;;;;;;5063781;28;20091;-57
2022/07/20 05:39:03;;;;;;;11.63;5.72;;;23.40;74.90;;;;;;5049275;28;20025;-57
2022/07/20 05:41:29;;;;;;;5.55;5.13;;;23.90;74.80;;;;;;5047975;28;20021;-57
2022/07/20 05:43:54;;;;;;;6.10;5.05;;;25.00;71.40;;;;;;5048363;28;20080;-57
2022/07/20 05:46:20;;;;;;;10.50;4.75;;;25.90;67.30;;;;;;5047755;28;20084;-58
2022/07/20 05:48:46;;;;;;;6.50;4.90;;;27.20;61.80;;;;;;5048556;28;20096;-58
2022/07/20 05:51:12;;;;;;;5.57;4.32;;;28.30;59.30;;;;;;5048088;28;20489;-58
2022/07/20 05:53:37;;;;;;;10.98;5.55;;;29.00;56.70;;;;;;5048570;28;20045;-58
2022/07/20 05:56:04;;;;;;;10.95;4.78;;;29.70;56.60;;;;;;5048151;28;20079;-58
2022/07/20 05:58:30;;;;;;;5.53;4.93;;;30.10;52.70;;;;;;5046785;28;20471;-58
2022/07/20 06:00:56;;;;;;;13.35;5.00;;;30.70;52.50;;;;;;5046595;28;20029;-58
2022/07/20 06:03:21;;;;;;;8.07;5.45;;;31.20;50.90;;;;;;5047300;28;20020;-58
2022/07/20 06:05:47;;;;;;;11.90;5.05;;;32.00;50.30;;;;;;5045971;28;20393;-58
2022/07/20 06:08:13;;;;;;;7.00;4.75;;;32.80;48.20;;;;;;5047254;28;20033;-59
2022/07/20 06:10:39;;;;;;;7.30;4.88;;;33.70;46.30;;;;;;5044555;28;20064;-58
2022/07/20 06:13:05;;;;;;;9.68;4.43;;;34.30;44.90;;;;;;5046117;28;20033;-58
2022/07/20 06:15:31;;;;;;;7.07;4.15;;;34.40;45.00;;;;;;5046317;28;20103;-58
2022/07/20 06:17:57;;;;;;;5.32;3.92;;;35.00;43.80;;;;;;5047664;28;20528;-58
2022/07/20 06:20:24;;;;;;;7.72;4.30;;;35.20;41.70;;;;;;5028339;28;20029;-58
2022/07/20 06:22:50;;;;;;;7.28;3.80;;;35.20;42.30;;;;;;5046662;28;20033;-58
2022/07/20 06:25:17;;;;;;;5.68;3.15;;;35.70;41.50;;;;;;5048423;28;20397;-58
2022/07/20 06:27:43;;;;;;;4.22;2.97;;;36.10;39.80;;;;;;5045755;28;20033;-59
2022/07/20 06:30:11;;;;;;;4.13;3.17;;;36.90;39.10;;;;;;5048756;28;20392;-59
2022/07/20 06:32:38;;;;;;;3.92;2.83;;;37.10;39.20;;;;;;5047743;28;20049;-59
2022/07/20 06:35:04;;;;;;;6.78;3.85;;;36.80;39.60;;;;;;5048372;28;20029;-59
2022/07/20 06:37:30;;;;;;;3.20;2.90;;;36.80;38.10;;;;;;5047754;28;20160;-59
2022/07/20 06:39:55;;;;;;;3.67;2.58;;;36.60;38.50;;;;;;5047407;28;20084;-58
2022/07/20 06:42:21;;;;;;;4.78;3.15;;;36.60;39.10;;;;;;5030718;28;20059;-59
2022/07/20 06:44:47;;;;;;;9.13;3.22;;;37.20;38.40;;;;;;5047498;28;20060;-59
2022/07/20 06:47:13;;;;;;;4.35;2.85;;;37.50;37.90;;;;;;5048026;28;20084;-58
2022/07/20 06:49:40;;;;;;;3.83;2.60;;;37.70;38.40;;;;;;5047675;28;20033;-59
2022/07/20 06:52:06;;;;;;;4.25;2.67;;;37.70;37.30;;;;;;5039719;28;20029;-59
2022/07/20 06:54:31;;;;;;;3.35;2.70;;;37.20;37.40;;;;;;5047412;28;20044;-58
2022/07/20 06:56:57;;;;;;;5.20;3.00;;;36.70;38.30;;;;;;5047338;28;20057;-58
2022/07/20 06:59:23;;;;;;;4.75;2.40;;;36.40;39.70;;;;;;5047550;28;20029;-58
2022/07/20 07:01:49;;;;;;;12.90;3.80;;;36.00;40.40;;;;;;5047361;28;20021;-58
2022/07/20 07:04:15;;;;;;;10.35;3.67;;;35.70;40.80;;;;;;5047925;28;20029;-58
2022/07/20 07:06:41;;;;;;;10.55;2.95;;;35.40;40.70;;;;;;5047210;28;20444;-58
2022/07/20 07:09:07;;;;;;;6.68;3.42;;;35.30;41.30;;;;;;5047954;28;20108;-58
2022/07/20 07:11:33;;;;;;;5.78;3.05;;;35.40;41.00;;;;;;5046457;28;20032;-58
2022/07/20 07:13:59;;;;;;;7.13;3.28;;;35.30;39.90;;;;;;5048093;28;20425;-58
2022/07/20 07:16:25;;;;;;;6.82;3.10;;;35.20;40.60;;;;;;5047155;28;20029;-58
2022/07/20 07:18:51;;;;;;;12.98;3.00;;;35.60;40.20;;;;;;5047002;28;20040;-58
2022/07/20 07:21:17;;;;;;;4.47;2.58;;;36.50;39.20;;;;;;5048230;28;20021;-58
2022/07/20 07:23:45;;;;;;;4.93;2.50;;;37.10;38.80;;;;;;5047146;28;20032;-58
2022/07/20 07:26:11;;;;;;;5.07;2.70;;;37.40;38.50;;;;;;5047731;28;20080;-59
2022/07/20 07:28:37;;;;;;;5.90;2.58;;;38.30;38.10;;;;;;5046831;28;20025;-59
2022/07/20 07:31:03;;;;;;;3.70;2.25;;;39.70;36.20;;;;;;5047501;28;20033;-59
2022/07/20 07:33:28;;;;;;;3.05;1.90;;;40.60;35.10;;;;;;5050857;28;20033;-59
2022/07/20 07:35:55;;;;;;;3.83;2.53;;;41.40;34.30;;;;;;5050297;28;20025;-59
2022/07/20 07:38:21;;;;;;;4.85;2.22;;;41.30;33.00;;;;;;5050141;28;20048;-59
2022/07/20 07:40:47;;;;;;;3.25;1.90;;;41.30;34.20;;;;;;5050402;28;20060;-59
2022/07/20 07:43:13;;;;;;;2.75;1.98;;;41.70;33.80;;;;;;5051396;28;20036;-59
2022/07/20 07:45:38;;;;;;;4.47;1.83;;;42.10;33.10;;;;;;5050227;28;20606;-59
2022/07/20 07:48:09;;;;;;;3.50;1.92;;;42.90;32.00;;;;;;5051533;28;20063;-59
2022/07/20 07:50:36;;;;;;;4.70;2.80;;;43.50;31.00;;;;;;5050963;28;20021;-59
2022/07/20 07:53:02;;;;;;;4.68;2.40;;;44.30;30.60;;;;;;5049658;28;20025;-59
2022/07/20 07:55:28;;;;;;;2.15;1.60;;;44.70;29.80;;;;;;5050592;28;20040;-59
2022/07/20 07:57:54;;;;;;;3.95;1.90;;;45.10;30.00;;;;;;5049720;28;20037;-59
2022/07/20 08:00:19;;;;;;;2.78;1.80;;;44.70;29.60;;;;;;5050988;28;20032;-59
2022/07/20 08:02:45;;;;;;;6.90;1.70;;;44.30;30.20;;;;;;5049642;28;20044;-59
2022/07/20 08:05:11;;;;;;;3.08;1.90;;;44.40;30.00;;;;;;5050700;28;20071;-59
2022/07/20 08:07:39;;;;;;;5.05;1.80;;;44.30;29.60;;;;;;5049569;28;20056;-59
2022/07/20 08:10:07;;;;;;;4.00;1.97;;;45.30;29.10;;;;;;5049675;28;20125;-59
2022/07/20 08:12:33;;;;;;;4.45;1.70;;;45.40;29.20;;;;;;5050810;28;20260;-60
2022/07/20 08:14:59;;;;;;;4.03;1.77;;;45.70;29.50;;;;;;5050094;28;20013;-59
2022/07/20 08:17:25;;;;;;;3.58;2.22;;;46.50;28.20;;;;;;5049755;28;20041;-59
2022/07/20 08:19:50;;;;;;;2.92;1.83;;;46.80;28.50;;;;;;5049356;28;20033;-59
2022/07/20 08:22:16;;;;;;;4.25;1.73;;;47.20;27.90;;;;;;5049651;28;20476;-59
2022/07/20 08:24:42;;;;;;;3.72;1.75;;;46.30;27.00;;;;;;5050204;28;21407;-59
2022/07/20 08:27:07;;;;;;;4.03;2.03;;;45.50;27.00;;;;;;5049534;28;20404;-60
2022/07/20 08:29:33;;;;;;;6.72;1.85;;;45.50;28.00;;;;;;5049485;28;20121;-59
2022/07/20 08:31:59;;;;;;;6.75;2.05;;;45.30;28.00;;;;;;5046844;28;20036;-59
2022/07/20 08:34:24;;;;;;;4.20;1.58;;;45.40;28.40;;;;;;5047576;28;20040;-59
2022/07/20 08:36:50;;;;;;;2.92;1.52;;;45.60;28.00;;;;;;5046759;28;20045;-59
2022/07/20 08:39:16;;;;;;;6.00;1.80;;;45.90;28.10;;;;;;5048398;28;20033;-59
2022/07/20 08:41:42;;;;;;;3.67;2.03;;;44.40;28.00;;;;;;5046341;28;20389;-59
2022/07/20 08:44:07;;;;;;;4.72;2.05;;;44.50;28.60;;;;;;5047175;28;20041;-59
2022/07/20 08:46:34;;;;;;;6.28;1.48;;;43.70;28.70;;;;;;5045619;28;20120;-59
2022/07/20 08:49:01;;;;;;;6.55;1.58;;;44.40;29.50;;;;;;5045348;28;20041;-59
2022/07/20 08:51:27;;;;;;;6.07;1.88;;;44.40;28.10;;;;;;5048279;28;20032;-59
2022/07/20 08:53:54;;;;;;;5.90;1.75;;;44.30;29.10;;;;;;5048470;28;20382;-59
2022/07/20 08:56:20;;;;;;;4.70;1.98;;;43.40;28.80;;;;;;5046502;28;20041;-59
2022/07/20 08:58:46;;;;;;;2.78;1.70;;;44.30;29.50;;;;;;5048759;28;20037;-59
2022/07/20 09:01:19;;;;;;;6.35;1.70;;;45.20;28.30;;;;;;5046151;28;20040;-59
2022/07/20 09:04:11;;;;;;;5.78;2.10;;;45.20;28.30;;;;;;5044413;28;20071;-60
2022/07/20 09:06:48;;;;;;;5.97;1.70;;;43.70;27.80;;;;;;5047801;28;20779;-59
2022/07/20 09:09:14;;;;;;;4.45;1.58;;;44.30;27.60;;;;;;5049599;28;20381;-59
2022/07/20 09:11:40;;;;;;;3.55;1.70;;;44.70;27.50;;;;;;5047015;28;20060;-59
2022/07/20 09:14:05;;;;;;;2.58;1.65;;;44.30;28.20;;;;;;5045165;28;20145;-59
2022/07/20 09:16:32;;;;;;;4.28;1.50;;;45.50;28.00;;;;;;5047837;28;20059;-59
2022/07/20 09:18:58;;;;;;;3.88;1.60;;;46.20;27.00;;;;;;5047328;28;20056;-60
2022/07/20 09:21:32;;;;;;;2.63;1.58;;;45.90;26.30;;;;;;5048119;28;20484;-60
2022/07/20 09:24:06;;;;;;;6.28;1.90;;;45.00;27.50;;;;;;5047778;28;20071;-59
2022/07/20 09:26:33;;;;;;;4.13;1.73;;;44.50;27.10;;;;;;5048410;28;20037;-59
2022/07/20 09:29:00;;;;;;;4.65;1.90;;;44.20;27.50;;;;;;5047679;28;20476;-60
2022/07/20 09:31:36;;;;;;;3.78;1.80;;;43.90;27.10;;;;;;5046959;28;20044;-60
2022/07/20 09:34:08;;;;;;;6.00;2.05;;;43.50;28.70;;;;;;5048869;28;20466;-60
2022/07/20 09:36:39;;;;;;;5.28;1.83;;;44.00;28.30;;;;;;5046491;28;20029;-60
2022/07/20 09:39:12;;;;;;;1.90;1.42;;;43.60;27.50;;;;;;5049141;28;20091;-59
2022/07/20 09:41:41;;;;;;;4.70;1.83;;;44.00;28.90;;;;;;5046633;28;20733;-59
2022/07/20 09:44:10;;;;;;;3.97;1.45;;;44.40;28.80;;;;;;5048072;28;20048;-60
2022/07/20 09:46:38;;;;;;;2.55;1.60;;;44.90;27.10;;;;;;5047404;28;20028;-60
2022/07/20 09:49:07;;;;;;;2.75;1.40;;;44.50;26.70;;;;;;5047283;28;20036;-60
2022/07/20 09:51:34;;;;;;;2.50;1.30;;;45.00;26.60;;;;;;5047987;28;20120;-60
2022/07/20 09:54:14;;;;;;;3.15;1.40;;;46.20;26.40;;;;;;5045863;28;20288;-60
2022/07/20 09:56:46;;;;;;;1.98;1.27;;;46.50;25.70;;;;;;5046590;28;20495;-60
2022/07/20 09:59:13;;;;;;;1.77;1.20;;;46.60;25.30;;;;;;5046464;28;20098;-60
2022/07/20 10:01:42;;;;;;;2.47;1.25;;;47.50;24.60;;;;;;5047619;28;20048;-60
2022/07/20 10:04:10;;;;;;;2.85;1.20;;;49.00;24.50;;;;;;5038316;28;20033;-60
2022/07/20 10:06:38;;;;;;;4.07;1.38;;;50.50;23.40;;;;;;5047009;28;20068;-61
2022/07/20 10:09:06;;;;;;;3.85;1.40;;;51.70;22.70;;;;;;5047764;28;20124;-60
2022/07/20 10:11:32;;;;;;;2.40;1.35;;;50.50;22.60;;;;;;5045385;28;20048;-60
2022/07/20 10:14:01;;;;;;;5.97;1.45;;;50.50;23.00;;;;;;5046143;28;20032;-60
2022/07/20 10:16:34;;;;;;;1.70;1.33;;;50.30;22.80;;;;;;5046059;28;20056;-60
2022/07/20 10:19:00;;;;;;;4.18;1.42;;;49.90;22.80;;;;;;5046763;28;20040;-60
2022/07/20 10:21:34;;;;;;;6.13;1.50;;;47.70;22.70;;;;;;5045677;28;20056;-60
2022/07/20 10:24:30;;;;;;;3.35;1.50;;;46.80;23.80;;;;;;5026266;28;20110;-60
2022/07/20 10:27:16;;;;;;;2.58;1.30;;;46.10;24.70;;;;;;5046998;28;20136;-59
2022/07/20 10:29:47;;;;;;;2.45;1.73;;;46.00;25.70;;;;;;5044401;28;20128;-60
2022/07/20 10:32:20;;;;;;;2.58;1.50;;;46.40;24.20;;;;;;5047321;28;20029;-60
2022/07/20 10:34:54;;;;;;;5.80;1.55;;;45.80;24.30;;;;;;5045923;28;20518;-60
2022/07/20 10:37:39;;;;;;;2.33;1.23;;;44.20;25.10;;;;;;5047156;28;20037;-60
2022/07/20 10:41:31;;;;;;;2.40;1.42;;;44.80;25.80;;;;;;5046450;28;20052;-60
2022/07/20 10:43:22;;;;;;;2.25;1.40;;;45.00;26.00;;;;;;5013915;28;20041;-59
2022/07/20 10:45:48;;;;;;;2.47;1.50;;;46.50;25.20;;;;;;5046429;28;20040;-60
2022/07/20 10:48:14;;;;;;;3.80;1.40;;;47.80;24.40;;;;;;5047756;28;20029;-60
2022/07/20 10:50:55;;;;;;;2.08;1.15;;;49.00;23.60;;;;;;5046592;28;20103;-60
2022/07/20 10:53:24;;;;;;;2.85;1.40;;;49.20;23.00;;;;;;5040938;28;20025;-60
2022/07/20 10:55:55;;;;;;;2.55;1.38;;;48.50;23.80;;;;;;5047347;28;20033;-60
2022/07/20 10:58:25;;;;;;;2.63;1.65;;;46.90;23.70;;;;;;5046706;28;20501;-59
2022/07/20 11:00:55;;;;;;;3.75;1.30;;;44.80;23.30;;;;;;5047722;28;20040;-59
2022/07/20 11:03:30;;;;;;;4.90;1.45;;;44.30;25.00;;;;;;5046675;28;20025;-59
2022/07/20 11:06:23;;;;;;;8.30;1.70;;;44.50;24.50;;;;;;5044126;28;20052;-59
2022/07/20 11:08:52;;;;;;;3.17;1.30;;;43.70;24.90;;;;;;5046867;28;20032;-59
2022/07/20 11:11:21;;;;;;;2.55;1.30;;;44.00;25.60;;;;;;5046516;28;20045;-59
2022/07/20 11:13:48;;;;;;;5.72;1.65;;;43.80;25.30;;;;;;5045162;28;20509;-59
2022/07/20 11:16:18;;;;;;;4.60;1.80;;;44.00;25.80;;;;;;5049248;28;20127;-59
2022/07/20 11:18:44;;;;;;;4.03;1.55;;;44.70;25.40;;;;;;5050600;28;20400;-59
2022/07/20 11:21:11;;;;;;;6.47;1.58;;;45.10;24.80;;;;;;5050509;28;20028;-59
2022/07/20 11:23:48;;;;;;;7.22;1.63;;;45.50;25.00;;;;;;5051419;28;20021;-59
2022/07/20 11:26:17;;;;;;;3.00;1.40;;;45.10;24.40;;;;;;5050810;28;20025;-59
2022/07/20 11:28:44;;;;;;;3.30;1.70;;;45.30;25.50;;;;;;5051347;28;20041;-59
2022/07/20 11:31:10;;;;;;;3.85;1.60;;;44.20;24.70;;;;;;5050813;28;20440;-59
2022/07/20 11:33:38;;;;;;;5.88;1.70;;;44.20;25.70;;;;;;5032951;28;20044;-59
2022/07/20 11:36:26;;;;;;;2.88;1.60;;;44.20;25.00;;;;;;5051223;28;20032;-59
2022/07/20 11:38:58;;;;;;;6.90;1.90;;;43.60;25.00;;;;;;5051107;28;20021;-59
2022/07/20 11:41:34;;;;;;;5.25;1.77;;;43.30;26.30;;;;;;5046882;28;20029;-59
2022/07/20 11:44:02;;;;;;;6.70;2.25;;;43.70;26.20;;;;;;5046260;28;20040;-59
2022/07/20 11:46:41;;;;;;;3.00;1.83;;;43.40;25.70;;;;;;5048584;28;20094;-59
2022/07/20 11:49:14;;;;;;;;;;;43.50;25.70;;;;;;5050416;28;20116;-59
2022/07/20 11:51:49;;;;;;;3.67;1.98;;;42.10;26.10;;;;;;5050367;28;19932;-59
2022/07/20 11:54:21;;;;;;;2.42;1.63;;;41.20;26.30;;;;;;5050279;28;20025;-59
2022/07/20 11:56:48;;;;;;;6.00;2.10;;;40.60;27.70;;;;;;5049402;28;20025;-59
2022/07/20 11:59:14;;;;;;;4.40;2.17;;;40.30;27.70;;;;;;5048868;28;20067;-59
2022/07/20 12:01:41;;;;;;;6.60;1.70;;;40.60;27.90;;;;;;5050367;28;20052;-59
2022/07/20 12:04:14;;;;;;;4.05;2.00;;;40.60;27.60;;;;;;5042779;28;20060;-59
2022/07/20 12:06:41;;;;;;;4.55;2.00;;;40.40;27.40;;;;;;5049374;28;20020;-59
2022/07/20 12:09:07;;;;;;;3.45;1.95;;;40.10;27.70;;;;;;5050212;28;20466;-59
2022/07/20 12:11:34;;;;;;;2.88;1.70;;;39.80;27.10;;;;;;5047124;28;20036;-59
2022/07/20 12:14:00;;;;;;;3.78;1.88;;;39.90;28.10;;;;;;5050547;28;20021;-58
2022/07/20 12:16:37;;;;;;;7.20;2.00;;;40.60;28.20;;;;;;5049037;28;20051;-59
2022/07/20 12:19:04;;;;;;;3.33;1.40;;;40.90;26.30;;;;;;5049336;28;20373;-58
2022/07/20 12:21:41;;;;;;;5.38;2.13;;;40.30;26.60;;;;;;5050015;28;20448;-58
2022/07/20 12:24:07;;;;;;;3.75;1.42;;;39.90;27.20;;;;;;5022478;28;20388;-59
2022/07/20 12:26:35;;;;;;;5.65;2.00;;;39.80;27.50;;;;;;5049276;28;20040;-59
2022/07/20 12:29:24;;;;;;;5.07;1.88;;;39.40;26.90;;;;;;5047421;28;20036;-59
2022/07/20 12:32:02;;;;;;;2.33;1.60;;;39.10;27.20;;;;;;5047230;28;20025;-58
2022/07/20 12:34:31;;;;;;;3.25;2.00;;;39.00;27.30;;;;;;5047090;28;20029;-58
2022/07/20 12:36:57;;;;;;;6.53;2.40;;;39.20;27.70;;;;;;5047498;28;20408;-59
2022/07/20 12:39:47;;;;;;;3.47;1.75;;;39.80;27.60;;;;;;5049425;28;20025;-59
2022/07/20 12:42:23;;;;;;;3.92;1.70;;;40.50;27.20;;;;;;5046343;28;20080;-58
2022/07/20 12:45:19;;;;;;;4.07;1.70;;;40.80;25.90;;;;;;5049466;28;20029;-59
2022/07/20 12:47:45;;;;;;;2.83;1.90;;;40.60;26.50;;;;;;5031423;28;20088;-59
2022/07/20 12:50:11;;;;;;;3.88;1.90;;;40.70;25.90;;;;;;5049940;28;20037;-59